Time;durP1;ratioP1;P1;durP2;ratioP2;P2;SDS_P1;SDS_P2;PMS_P1;PMS_P2;Temp;Humidity;BMP_temperature;BMP_pressure;BME280_temperature;BME280_humidity;BME280_pressure;Samples;Min_cycle;Max_cycle;Signal;HPM_P1;HPM_P2
2022/05/02 00:02:20;;;;;;;;;;;6.10;99.90;;;;;;5085175;28;19929;-67
2022/05/02 00:04:46;;;;;;;;;;;6.10;99.90;;;;;;5086152;28;20393;-67
2022/05/02 00:07:11;;;;;;;;;;;6.20;99.90;;;;;;5089785;28;19975;-67
2022/05/02 00:09:37;;;;;;;;;;;6.00;99.90;;;;;;5085190;28;20417;-68
2022/05/02 00:12:03;;;;;;;;;;;6.20;99.90;;;;;;5087222;28;20474;-67
2022/05/02 00:14:28;;;;;;;;;;;6.00;99.90;;;;;;5086847;28;20023;-68
2022/05/02 00:16:54;;;;;;;;;;;6.00;99.90;;;;;;5086727;28;20008;-67
2022/05/02 00:19:19;;;;;;;;;;;6.00;99.90;;;;;;5081481;28;19929;-67
2022/05/02 00:21:45;;;;;;;;;;;6.00;99.90;;;;;;5082620;28;19934;-68
2022/05/02 00:24:10;;;;;;;;;;;6.00;99.90;;;;;;5088035;28;19950;-67
2022/05/02 00:26:36;;;;;;;;;;;5.90;99.90;;;;;;5087818;28;20349;-68
2022/05/02 00:29:01;;;;;;;;;;;5.90;99.90;;;;;;5086439;28;19935;-67
2022/05/02 00:31:27;;;;;;;;;;;6.10;99.90;;;;;;5080485;28;19935;-67
2022/05/02 00:33:52;;;;;;;;;;;5.90;99.90;;;;;;5087649;28;19934;-67
2022/05/02 00:36:18;;;;;;;;;;;5.80;99.90;;;;;;5085423;28;19935;-68
2022/05/02 00:38:43;;;;;;;;;;;5.80;99.90;;;;;;5085397;28;19979;-68
2022/05/02 00:41:10;;;;;;;;;;;5.80;99.90;;;;;;5085973;28;20027;-67
2022/05/02 00:43:36;;;;;;;;;;;5.90;99.90;;;;;;5088663;28;20448;-67
2022/05/02 00:46:01;;;;;;;;;;;5.70;99.90;;;;;;5081601;28;20030;-67
2022/05/02 00:48:29;;;;;;;;;;;5.70;99.90;;;;;;5083140;28;19975;-67
2022/05/02 00:50:55;;;;;;;;;;;5.70;99.90;;;;;;5087780;28;20037;-67
2022/05/02 00:53:22;;;;;;;;;;;5.70;99.90;;;;;;5085342;28;19986;-68
2022/05/02 00:55:48;;;;;;;;;;;5.60;99.90;;;;;;5084706;28;19927;-68
2022/05/02 00:58:14;;;;;;;;;;;5.70;99.90;;;;;;5084362;28;20416;-68
2022/05/02 01:00:40;;;;;;;;;;;5.60;99.90;;;;;;5080570;28;20336;-68
2022/05/02 01:03:07;;;;;;;;;;;5.70;99.90;;;;;;5102929;28;19932;-67
2022/05/02 01:05:36;;;;;;;;;;;5.60;99.90;;;;;;5078384;28;19982;-67
2022/05/02 01:08:02;;;;;;;;;;;5.60;99.90;;;;;;5082530;28;19935;-67
2022/05/02 01:10:28;;;;;;;;;;;5.60;99.90;;;;;;5083497;28;19931;-66
2022/05/02 01:12:53;;;;;;;;;;;5.50;99.90;;;;;;5086983;28;19928;-67
2022/05/02 01:15:19;;;;;;;;;;;5.50;99.90;;;;;;5084664;28;19943;-68
2022/05/02 01:17:45;;;;;;;;;;;5.50;99.90;;;;;;5088036;28;19980;-67
2022/05/02 01:20:11;;;;;;;;;;;5.50;99.90;;;;;;5086896;28;19931;-68
2022/05/02 01:22:36;;;;;;;;;;;5.50;99.90;;;;;;5088328;28;19967;-68
2022/05/02 01:25:02;;;;;;;;;;;5.50;99.90;;;;;;5102172;28;19939;-68
2022/05/02 01:27:27;;;;;;;;;;;5.40;99.90;;;;;;5085180;28;20267;-68
2022/05/02 01:29:53;;;;;;;;;;;5.40;99.90;;;;;;5083623;28;19950;-68
2022/05/02 01:32:18;;;;;;;;;;;5.50;99.90;;;;;;5079603;28;19928;-67
2022/05/02 01:34:44;;;;;;;;;;;5.40;99.90;;;;;;5072438;28;19928;-67
2022/05/02 01:37:10;;;;;;;;;;;5.40;99.90;;;;;;5084734;28;19973;-67
2022/05/02 01:39:36;;;;;;;;;;;5.40;99.90;;;;;;5082383;28;19939;-67
2022/05/02 01:42:02;;;;;;;;;;;5.60;99.90;;;;;;5079443;28;20307;-67
2022/05/02 01:44:28;;;;;;;;;;;5.30;99.90;;;;;;5084647;28;19928;-68
2022/05/02 01:46:53;;;;;;;;;;;5.40;99.90;;;;;;5077818;28;19928;-68
2022/05/02 01:49:19;;;;;;;;;;;5.30;99.90;;;;;;5087145;28;19928;-68
2022/05/02 01:51:45;;;;;;;;;;;5.30;99.90;;;;;;5087355;28;19927;-68
2022/05/02 01:54:10;;;;;;;;;;;5.30;99.90;;;;;;5084064;28;20289;-68
2022/05/02 01:56:36;;;;;;;;;;;5.20;99.90;;;;;;5085034;28;19928;-67
2022/05/02 01:59:03;;;;;;;;;;;5.20;99.90;;;;;;5081588;28;19934;-69
2022/05/02 02:01:28;;;;;;;;;;;5.20;99.90;;;;;;5084067;28;21709;-68
2022/05/02 02:03:54;;;;;;;;;;;5.20;99.90;;;;;;5077962;28;20018;-67
2022/05/02 02:06:21;;;;;;;;;;;5.10;99.90;;;;;;5086576;28;20280;-68
2022/05/02 02:08:47;;;;;;;;;;;5.20;99.90;;;;;;5087117;28;19928;-68
2022/05/02 02:11:14;;;;;;;;;;;5.10;99.90;;;;;;5083135;28;20456;-68
2022/05/02 02:13:40;;;;;;;;;;;4.10;99.90;;;;;;5085987;28;19928;-68
2022/05/02 02:16:10;;;;;;;;;;;5.10;99.90;;;;;;5082735;28;19928;-68
2022/05/02 02:18:42;;;;;;;;;;;5.10;99.90;;;;;;5077160;28;19928;-68
2022/05/02 02:21:09;;;;;;;;;;;5.10;99.90;;;;;;5083608;28;20389;-68
2022/05/02 02:23:35;;;;;;;;;;;5.10;99.90;;;;;;5088969;28;20674;-67
2022/05/02 02:26:03;;;;;;;;;;;5.10;99.90;;;;;;5090576;28;20342;-68
2022/05/02 02:28:29;;;;;;;;;;;5.10;99.90;;;;;;5085097;28;20294;-68
2022/05/02 02:30:54;;;;;;;;;;;5.00;99.90;;;;;;5089015;28;19928;-68
2022/05/02 02:33:20;;;;;;;;;;;5.00;99.90;;;;;;5090111;28;19975;-67
2022/05/02 02:35:46;;;;;;;;;;;6.50;99.90;;;;;;5084205;28;20285;-67
2022/05/02 02:38:14;;;;;;;;;;;5.00;99.90;;;;;;5084030;28;19924;-67
2022/05/02 02:40:40;;;;;;;;;;;5.00;99.90;;;;;;5090142;28;19967;-68
2022/05/02 02:43:07;;;;;;;;;;;5.10;99.90;;;;;;5091867;28;20454;-68
2022/05/02 02:45:32;;;;;;;;;;;5.00;99.90;;;;;;5108499;27;19925;-68
2022/05/02 02:47:58;;;;;;;;;;;5.80;99.90;;;;;;5091460;28;19977;-69
2022/05/02 02:50:23;;;;;;;;;;;5.00;99.90;;;;;;5091822;28;19932;-68
2022/05/02 02:52:51;;;;;;;;;;;4.90;99.90;;;;;;5076725;28;19924;-68
2022/05/02 02:55:17;;;;;;;;;;;4.90;99.90;;;;;;5093818;28;19924;-67
2022/05/02 02:57:42;;;;;;;;;;;4.90;99.90;;;;;;5091328;28;20022;-68
2022/05/02 03:00:08;;;;;;;;;;;4.90;99.90;;;;;;5092353;28;19932;-68
2022/05/02 03:02:37;;;;;;;;;;;4.80;99.90;;;;;;5093722;28;19924;-67
2022/05/02 03:07:47;;;;;;;;;;;4.80;99.90;;;;;;5087929;28;20007;-67
2022/05/02 03:10:13;;;;;;;;;;;4.80;99.90;;;;;;5089322;28;20019;-68
2022/05/02 03:12:39;;;;;;;;;;;4.80;99.90;;;;;;5085114;28;19924;-68
2022/05/02 03:15:05;;;;;;;;;;;4.80;99.90;;;;;;5091383;28;19924;-68
2022/05/02 03:17:30;;;;;;;;;;;4.80;99.90;;;;;;5091444;28;19931;-68
2022/05/02 03:19:56;;;;;;;;;;;4.90;99.90;;;;;;5090650;28;19940;-68
2022/05/02 03:22:21;;;;;;;;;;;4.80;99.90;;;;;;5091995;28;19924;-68
2022/05/02 03:24:47;;;;;;;;;;;4.70;99.90;;;;;;5091899;28;19931;-68
2022/05/02 03:27:13;;;;;;;;;;;4.80;99.90;;;;;;5090051;28;21242;-67
2022/05/02 03:29:38;;;;;;;;;;;4.50;99.90;;;;;;5090957;28;19924;-68
2022/05/02 03:32:04;;;;;;;;;;;4.60;99.90;;;;;;5090136;28;19932;-68
2022/05/02 03:34:29;;;;;;;;;;;4.60;99.90;;;;;;5086742;28;19924;-68
2022/05/02 03:36:55;;;;;;;;;;;4.60;99.90;;;;;;5085142;28;20522;-67
2022/05/02 03:39:20;;;;;;;;;;;4.60;99.90;;;;;;5077667;28;19946;-68
2022/05/02 03:41:46;;;;;;;;;;;4.60;99.90;;;;;;5085150;28;19982;-68
2022/05/02 03:44:11;;;;;;;;;;;4.60;99.90;;;;;;5088473;28;19924;-68
2022/05/02 03:46:37;;;;;;;;;;;4.60;99.90;;;;;;5086409;28;19924;-68
2022/05/02 03:49:02;;;;;;;;;;;4.80;99.90;;;;;;5084619;28;19931;-69
2022/05/02 03:51:28;;;;;;;;;;;4.60;99.90;;;;;;5086057;28;19998;-67
2022/05/02 03:53:54;;;;;;;;;;;4.60;99.90;;;;;;5089211;28;20007;-68
2022/05/02 03:56:19;;;;;;;;;;;4.50;99.90;;;;;;5084706;28;19924;-67
2022/05/02 03:58:45;;;;;;;;;;;4.50;99.90;;;;;;5085498;28;19932;-67
2022/05/02 04:01:10;;;;;;;;;;;5.90;99.90;;;;;;5087878;28;19958;-67
2022/05/02 04:03:36;;;;;;;;;;;4.50;99.90;;;;;;5088464;28;20421;-69
2022/05/02 04:06:02;;;;;;;;;;;4.50;99.90;;;;;;5082899;28;19932;-67
2022/05/02 04:08:28;;;;;;;;;;;4.50;99.90;;;;;;5084453;28;19924;-68
2022/05/02 04:10:53;;;;;;;;;;;4.50;99.90;;;;;;5090193;28;19931;-67
2022/05/02 04:13:19;;;;;;;;;;;4.50;99.90;;;;;;5083676;28;19928;-68
2022/05/02 04:15:45;;;;;;;;;;;4.50;99.90;;;;;;5092008;28;19924;-67
2022/05/02 04:18:10;;;;;;;;;;;4.50;99.90;;;;;;5089181;28;20125;-68
2022/05/02 04:20:36;;;;;;;;;;;4.50;99.90;;;;;;5088468;28;19928;-69
2022/05/02 04:23:01;;;;;;;;;;;4.50;99.90;;;;;;5085221;28;19927;-68
2022/05/02 04:25:27;;;;;;;;;;;4.60;99.90;;;;;;5085844;28;20015;-67
2022/05/02 04:27:52;;;;;;;;;;;4.50;99.90;;;;;;5091991;28;19970;-68
2022/05/02 04:30:18;;;;;;;;;;;4.50;99.90;;;;;;5085879;28;19924;-68
2022/05/02 04:32:44;;;;;;;;;;;4.50;99.90;;;;;;5085708;28;19959;-69
2022/05/02 04:35:12;;;;;;;;;;;4.50;99.90;;;;;;5085638;28;20297;-67
2022/05/02 04:37:38;;;;;;;;;;;4.60;99.90;;;;;;5087532;28;19931;-67
2022/05/02 04:40:04;;;;;;;;;;;4.60;99.90;;;;;;5083261;28;19924;-68
2022/05/02 04:42:29;;;;;;;;;;;4.70;99.90;;;;;;5083025;28;20273;-69
2022/05/02 04:44:55;;;;;;;;;;;4.80;99.90;;;;;;5087445;28;19924;-67
2022/05/02 04:47:20;;;;;;;;;;;4.20;99.90;;;;;;5089334;28;19924;-67
2022/05/02 04:49:46;;;;;;;;;;;5.00;99.90;;;;;;5079403;28;19932;-67
2022/05/02 04:52:11;;;;;;;;;;;5.00;99.90;;;;;;5066150;28;19931;-68
2022/05/02 04:54:37;;;;;;;;;;;5.00;99.90;;;;;;5088554;28;20283;-69
2022/05/02 04:57:02;;;;;;;;;;;4.90;99.90;;;;;;5090471;28;20053;-68
2022/05/02 04:59:28;;;;;;;;;;;5.00;99.90;;;;;;5085760;28;19971;-68
2022/05/02 05:01:53;;;;;;;;;;;5.00;99.90;;;;;;5090442;28;19935;-68
2022/05/02 05:04:19;;;;;;;;;;;6.80;99.90;;;;;;5075727;28;19924;-68
2022/05/02 05:06:45;;;;;;;;;;;5.00;99.90;;;;;;5089616;28;20405;-68
2022/05/02 05:09:10;;;;;;;;;;;5.10;99.90;;;;;;5078745;28;19924;-69
2022/05/02 05:11:41;;;;;;;;;;;5.10;99.90;;;;;;5085303;28;19981;-68
2022/05/02 05:17:16;;;;;;;;;;;5.10;99.90;;;;;;5084635;28;19977;-67
2022/05/02 05:20:00;;;;;;;;;;;5.30;99.90;;;;;;5078292;28;19924;-68
2022/05/02 05:22:44;;;;;;;;;;;5.30;99.90;;;;;;5085937;28;19959;-68
2022/05/02 05:25:28;;;;;;;;;;;5.40;99.90;;;;;;5082997;28;20393;-68
2022/05/02 05:28:13;;;;;;;;;;;5.60;99.90;;;;;;5081981;28;19931;-68
2022/05/02 05:30:46;;;;;;;;;;;5.70;99.90;;;;;;5080013;28;20370;-67
2022/05/02 05:33:12;;;;;;;;;;;5.80;99.90;;;;;;5085389;28;19975;-68
2022/05/02 05:35:48;;;;;;;;;;;6.00;99.90;;;;;;5078052;28;19966;-68
2022/05/02 05:38:21;;;;;;;;;;;6.10;99.90;;;;;;5091866;28;20289;-68
2022/05/02 05:40:50;;;;;;;;;;;5.40;99.90;;;;;;5087277;28;19976;-67
2022/05/02 05:43:22;;;;;;;;;;;6.70;99.90;;;;;;5081569;28;19924;-69
2022/05/02 05:46:07;;;;;;;;;;;7.20;99.90;;;;;;5085499;28;19925;-69
2022/05/02 05:48:43;;;;;;;;;;;7.60;99.90;;;;;;5073480;28;19931;-68
2022/05/02 05:51:27;;;;;;;;;;;8.00;99.90;;;;;;5083229;28;20043;-68
2022/05/02 05:54:05;;;;;;;;;;;8.30;99.90;;;;;;5077664;28;19943;-68
2022/05/02 05:56:39;;;;;;;;;;;8.50;99.90;;;;;;5086649;28;19925;-68
2022/05/02 05:59:08;;;;;;;;;;;8.60;99.90;;;;;;5086327;28;19932;-68
2022/05/02 06:01:52;;;;;;;;;;;8.60;99.90;;;;;;5086863;28;19925;-67
2022/05/02 06:04:21;;;;;;;;;;;8.50;99.90;;;;;;5089093;28;19932;-68
2022/05/02 06:06:47;;;;;;;;;;;8.60;99.90;;;;;;5087129;28;19924;-69
2022/05/02 06:09:14;;;;;;;;;;;8.50;99.90;;;;;;5097447;28;19924;-68
2022/05/02 06:11:42;;;;;;;;;;;8.50;99.90;;;;;;5085214;28;20343;-68
2022/05/02 06:14:08;;;;;;;;;;;8.60;99.90;;;;;;5092101;28;20373;-68
2022/05/02 06:19:24;;;;;;;;;;;8.80;99.90;;;;;;5090204;28;19924;-68
2022/05/02 06:21:50;;;;;;;;;;;10.40;99.90;;;;;;5088090;28;19925;-67
2022/05/02 06:24:18;;;;;;;;;;;10.30;99.90;;;;;;5093051;28;20369;-68
2022/05/02 06:26:45;;;;;;;;;;;9.40;99.90;;;;;;5085726;28;21238;-68
2022/05/02 06:29:11;;;;;;;;;;;9.70;99.90;;;;;;5093516;28;19969;-68
2022/05/02 06:31:37;;;;;;;;;;;10.30;99.90;;;;;;5088860;28;20016;-67
2022/05/02 06:34:04;;;;;;;;;;;10.80;99.90;;;;;;5091344;28;19928;-68
2022/05/02 06:36:35;;;;;;;;;;;11.20;99.90;;;;;;5094340;28;20312;-68
2022/05/02 06:39:10;;;;;;;;;;;11.70;99.90;;;;;;5108235;28;20246;-68
2022/05/02 06:41:50;;;;;;;;;;;11.80;99.90;;;;;;5086250;28;19928;-67
2022/05/02 06:44:25;;;;;;;;;;;11.70;99.90;;;;;;5077348;28;20004;-68
2022/05/02 06:47:01;;;;;;;;;;;11.60;99.90;;;;;;5086226;28;19924;-68
2022/05/02 06:49:31;;;;;;;;;;;11.60;99.90;;;;;;5093061;28;19920;-67
2022/05/02 06:51:57;;;;;;;;;;;11.60;99.90;;;;;;5099514;28;19933;-67
2022/05/02 06:54:34;;;;;;;;;;;11.60;99.90;;;;;;5084399;28;19928;-67
2022/05/02 06:57:08;;;;;;;;;;;11.60;99.90;;;;;;5090650;28;20457;-68
2022/05/02 06:59:46;;;;;;;;;;;11.60;99.90;;;;;;5088259;28;20007;-67
2022/05/02 07:02:11;;;;;;;;;;;11.60;99.90;;;;;;5086580;28;19924;-67
2022/05/02 07:04:50;;;;;;;;;;;11.60;99.90;;;;;;5085774;28;20323;-67
2022/05/02 07:07:25;;;;;;;;;;;11.60;99.90;;;;;;5088432;28;19968;-68
2022/05/02 07:09:52;;;;;;;;;;;11.60;99.90;;;;;;5083107;28;20293;-67
2022/05/02 07:12:19;;;;;;;;;;;11.60;99.90;;;;;;5092930;28;20289;-67
2022/05/02 07:15:03;;;;;;;;;;;12.50;99.90;;;;;;5091264;28;20002;-69
2022/05/02 07:17:48;;;;;;;;;;;11.80;99.90;;;;;;5087776;28;20415;-68
2022/05/02 07:20:25;;;;;;;;;;;11.90;99.90;;;;;;5086577;28;19928;-68
2022/05/02 07:22:51;;;;;;;;;;;12.00;99.90;;;;;;5089514;28;20369;-67
2022/05/02 07:25:19;;;;;;;;;;;12.00;99.90;;;;;;5103661;28;19932;-68
2022/05/02 07:27:53;;;;;;;;;;;12.10;99.90;;;;;;5091780;28;19924;-67
2022/05/02 07:30:20;;;;;;;;;;;12.30;99.90;;;;;;5076344;28;19975;-68
2022/05/02 07:32:45;;;;;;;;;;;12.30;99.90;;;;;;5078862;28;19924;-68
2022/05/02 07:35:13;;;;;;;;;;;12.30;99.90;;;;;;5074289;28;19924;-68
2022/05/02 07:37:41;;;;;;;;;;;12.50;99.90;;;;;;5083805;28;20389;-68
2022/05/02 07:40:10;;;;;;;;;;;12.60;99.90;;;;;;5089935;28;19924;-68
2022/05/02 07:42:36;;;;;;;;;;;12.70;99.90;;;;;;5086543;28;19924;-68
2022/05/02 07:45:02;;;;;;;;;;;12.80;99.90;;;;;;5087812;28;20362;-67
2022/05/02 07:47:31;;;;;;;;;;;12.90;99.90;;;;;;5087937;28;19963;-67
2022/05/02 07:49:57;;;;;;;;;;;12.80;99.90;;;;;;5087737;28;19932;-67
2022/05/02 07:52:24;;;;;;;;;;;13.00;99.90;;;;;;5090569;28;20447;-68
2022/05/02 07:54:51;;;;;;;;;;;13.00;99.90;;;;;;5089067;28;20302;-67
2022/05/02 07:57:18;;;;;;;;;;;13.10;99.90;;;;;;5089384;28;20014;-67
2022/05/02 07:59:46;;;;;;;;;;;13.00;99.90;;;;;;5082865;28;19924;-68
2022/05/02 08:02:14;;;;;;;;;;;13.50;99.90;;;;;;5087710;28;19924;-68
2022/05/02 08:04:44;;;;;;;;;;;13.30;99.90;;;;;;5086458;28;19931;-69
2022/05/02 08:07:22;;;;;;;;;;;13.90;99.90;;;;;;5087830;28;19924;-67
2022/05/02 08:09:53;;;;;;;;;;;13.50;99.90;;;;;;5090648;28;20362;-67
2022/05/02 08:12:28;;;;;;;;;;;13.60;99.90;;;;;;5087707;28;19930;-68
2022/05/02 08:15:00;;;;;;;;;;;13.60;99.90;;;;;;5085443;28;20027;-67
2022/05/02 08:17:25;;;;;;;;;;;13.50;99.50;;;;;;5071868;28;20391;-67
2022/05/02 08:19:57;;;;;;;;;;;13.80;99.90;;;;;;5086460;28;19924;-68
2022/05/02 08:28:21;;;;;;;;;;;13.90;99.90;;;;;;5087969;28;19935;-67
2022/05/02 08:30:54;;;;;;;;;;;14.20;99.70;;;;;;5088125;28;19924;-68
2022/05/02 08:33:24;;;;;;;;;;;14.40;98.60;;;;;;5083562;28;19931;-68
2022/05/02 08:35:54;;;;;;;;;;;14.20;98.10;;;;;;5081902;28;19942;-68
2022/05/02 08:38:38;;;;;;;;;;;14.20;98.10;;;;;;5085954;28;20018;-67
2022/05/02 08:41:15;;;;;;;;;;;14.30;97.80;;;;;;5089655;28;19931;-68
2022/05/02 08:43:59;;;;;;;;;;;14.40;98.30;;;;;;5086835;28;19932;-68
2022/05/02 08:46:44;;;;;;;;;;;14.50;97.70;;;;;;5087123;28;19932;-67
2022/05/02 08:49:37;;;;;;;;;;;14.70;97.30;;;;;;5087525;28;19928;-67
2022/05/02 08:52:21;;;;;;;;;;;14.90;98.20;;;;;;5086834;28;20402;-69
2022/05/02 08:54:50;;;;;;;;;;;15.20;97.10;;;;;;5087643;28;19924;-67
2022/05/02 08:57:18;;;;;;;;;;;15.70;97.20;;;;;;5088809;28;19936;-67
2022/05/02 08:59:50;;;;;;;;;;;15.30;94.70;;;;;;5087585;28;19967;-68
2022/05/02 09:02:30;;;;;;;;;;;15.30;94.80;;;;;;5087194;28;19964;-68
2022/05/02 09:05:16;;;;;;;;;;;15.20;95.20;;;;;;5088268;28;20047;-67
2022/05/02 09:07:44;;;;;;;;;;;15.20;94.60;;;;;;5085473;28;19971;-68
2022/05/02 09:10:20;;;;;;;;;;;15.30;95.50;;;;;;5089852;28;20286;-69
2022/05/02 09:13:04;;;;;;;;;;;15.40;95.20;;;;;;5086099;28;19931;-68
2022/05/02 09:15:46;;;;;;;;;;;15.60;93.90;;;;;;5087911;28;20350;-68
2022/05/02 09:18:12;;;;;;;;;;;15.60;94.30;;;;;;5083866;28;20043;-68
2022/05/02 09:20:54;;;;;;;;;;;15.70;94.10;;;;;;5100128;28;20361;-67
2022/05/02 09:23:26;;;;;;;;;;;15.90;92.90;;;;;;5088479;28;19927;-68
2022/05/02 09:25:57;;;;;;;;;;;15.80;92.50;;;;;;5100011;28;19924;-67
2022/05/02 09:28:32;;;;;;;;;;;16.10;94.20;;;;;;5085146;28;19984;-69
2022/05/02 09:31:16;;;;;;;;;;;16.20;91.50;;;;;;5082246;28;20886;-67
2022/05/02 09:33:59;;;;;;;;;;;16.40;93.00;;;;;;5085264;28;19935;-68
2022/05/02 09:36:25;;;;;;;;;;;16.30;90.60;;;;;;5083773;28;20424;-70
2022/05/02 09:38:56;;;;;;;;;;;16.50;90.90;;;;;;5081952;28;19940;-67
2022/05/02 09:41:24;;;;;;;;;;;16.00;91.60;;;;;;5080421;28;19935;-68
2022/05/02 09:50:04;;;;;;;;;;;16.70;90.10;;;;;;5083441;28;19924;-68
2022/05/02 09:52:56;;;;;;;;;;;16.80;90.10;;;;;;5080812;28;19967;-68
2022/05/02 09:58:31;;;;;;;;;;;17.00;87.60;;;;;;5086214;28;20349;-69
2022/05/02 10:01:06;;;;;;;;;;;17.40;89.60;;;;;;5083592;28;19943;-69
2022/05/02 10:03:40;;;;;;;;;;;17.60;84.80;;;;;;5080890;28;20016;-69
2022/05/02 10:06:08;;;;;;;;;;;17.90;85.00;;;;;;5082524;28;20023;-69
2022/05/02 10:08:37;;;;;;;;;;;18.30;83.40;;;;;;5081035;28;19931;-68
2022/05/02 10:11:15;;;;;;;;;;;18.60;83.00;;;;;;5070237;28;19924;-67
2022/05/02 10:13:50;;;;;;;;;;;18.60;77.70;;;;;;5086713;28;19920;-68
2022/05/02 10:16:24;;;;;;;;;;;18.70;76.70;;;;;;5084349;28;19969;-67
2022/05/02 10:19:07;;;;;;;;;;;18.70;76.20;;;;;;5089255;28;20312;-69
2022/05/02 10:21:41;;;;;;;;;;;18.70;76.00;;;;;;5086753;28;19933;-68
2022/05/02 10:24:24;;;;;;;;;;;18.90;73.60;;;;;;5081412;28;20022;-69
2022/05/02 10:26:55;;;;;;;;;;;19.10;71.90;;;;;;5085127;28;19928;-69
2022/05/02 10:29:26;;;;;;;;;;;19.10;72.00;;;;;;5087105;28;20007;-69
2022/05/02 10:32:01;;;;;;;;;;;19.20;70.20;;;;;;5084864;28;19924;-69
2022/05/02 10:34:28;;;;;;;;;;;19.00;69.10;;;;;;5088202;28;21225;-69
2022/05/02 10:36:55;;;;;;;;;;;18.90;70.30;;;;;;5087849;28;20423;-68
2022/05/02 10:39:26;;;;;;;;;;;19.20;71.40;;;;;;5088583;28;19931;-69
2022/05/02 10:41:55;;;;;;;;;;;18.60;67.60;;;;;;5088038;28;19934;-68
2022/05/02 10:44:22;;;;;;;;;;;18.70;69.70;;;;;;5084178;28;20329;-69
2022/05/02 10:46:49;;;;;;;;;;;18.80;69.50;;;;;;5087206;28;19938;-67
2022/05/02 10:49:14;;;;;;;;;;;19.00;66.90;;;;;;5088705;28;20002;-68
2022/05/02 10:51:54;;;;;;;;;;;19.20;69.50;;;;;;5092001;28;20063;-68
2022/05/02 10:54:41;;;;;;;;;;;19.50;66.30;;;;;;5088701;28;19996;-68
2022/05/02 10:57:18;;;;;;;;;;;19.50;65.00;;;;;;5090845;28;20266;-67
2022/05/02 10:59:45;;;;;;;;;;;19.30;64.80;;;;;;5087899;28;20369;-68
2022/05/02 11:02:20;;;;;;;;;;;19.50;66.00;;;;;;5091042;28;19965;-69
2022/05/02 11:04:45;;;;;;;;;;;19.80;65.40;;;;;;5086130;28;19979;-69
2022/05/02 11:07:22;;;;;;;;;;;19.80;61.50;;;;;;5085863;28;20422;-68
2022/05/02 11:09:51;;;;;;;;;;;19.90;60.60;;;;;;5100837;28;19931;-70
2022/05/02 11:12:25;;;;;;;;;;;19.90;63.00;;;;;;5090479;28;20274;-69
2022/05/02 11:15:05;;;;;;;;;;;20.00;60.50;;;;;;5089696;28;19924;-70
2022/05/02 11:17:36;;;;;;;;;;;20.40;61.70;;;;;;5086631;28;19975;-69
2022/05/02 11:23:08;;;;;;;;;;;20.10;62.10;;;;;;5085829;28;19959;-68
2022/05/02 11:25:39;;;;;;;;;;;20.40;60.30;;;;;;5088674;28;20003;-69
2022/05/02 11:28:22;;;;;;;;;;;20.60;60.10;;;;;;5085456;28;19947;-69
2022/05/02 11:30:55;;;;;;;;;;;20.60;58.00;;;;;;5086377;28;19932;-69
2022/05/02 11:33:21;;;;;;;;;;;20.50;59.00;;;;;;5086246;28;20378;-68
2022/05/02 11:35:54;;;;;;;;;;;20.80;59.20;;;;;;5098676;28;19963;-68
2022/05/02 11:38:39;;;;;;;;;;;20.90;60.60;;;;;;5090315;28;19931;-68
2022/05/02 11:41:21;;;;;;;;;;;20.80;55.90;;;;;;5089300;28;19932;-68
2022/05/02 11:43:47;;;;;;;;;;;21.00;58.80;;;;;;5087201;28;19931;-70
2022/05/02 11:46:24;;;;;;;;;;;21.20;56.50;;;;;;5083364;28;19924;-69
2022/05/02 11:49:13;;;;;;;;;;;21.10;55.90;;;;;;5088245;28;20322;-69
2022/05/02 11:51:46;;;;;;;;;;;21.10;55.70;;;;;;5088591;28;19975;-67
2022/05/02 11:54:27;;;;;;;;;;;21.10;54.80;;;;;;5084919;28;20028;-69
2022/05/02 11:57:04;;;;;;;;;;;21.00;57.90;;;;;;5076554;28;20373;-69
2022/05/02 11:59:36;;;;;;;;;;;20.90;56.10;;;;;;5084090;28;19992;-68
2022/05/02 12:02:03;;;;;;;;;;;21.00;54.70;;;;;;5082654;28;19936;-69
2022/05/02 12:04:30;;;;;;;;;;;21.00;58.90;;;;;;5089956;28;19985;-68
2022/05/02 12:07:04;;;;;;;;;;;21.00;61.40;;;;;;5086320;28;19928;-69
2022/05/02 12:09:32;;;;;;;;;;;21.20;58.80;;;;;;5085838;28;20423;-69
2022/05/02 12:12:02;;;;;;;;;;;21.30;59.00;;;;;;5083566;28;20301;-69
2022/05/02 12:14:30;;;;;;;;;;;21.30;59.90;;;;;;5083068;28;19955;-68
2022/05/02 12:17:09;;;;;;;;;;;21.20;58.50;;;;;;5084810;28;20482;-69
2022/05/02 12:19:36;;;;;;;;;;;21.20;59.10;;;;;;5086134;28;20389;-69
2022/05/02 12:22:08;;;;;;;;;;;20.90;59.60;;;;;;5085427;28;19939;-69
2022/05/02 12:24:35;;;;;;;;;;;20.50;60.20;;;;;;5084485;28;20088;-68
2022/05/02 12:27:00;;;;;;;;;;;20.80;61.20;;;;;;5082459;28;19974;-69
2022/05/02 12:29:27;;;;;;;;;;;20.70;61.50;;;;;;5088742;28;19971;-68
2022/05/02 12:31:55;;;;;;;;;;;20.80;60.60;;;;;;5086004;28;20050;-69
2022/05/02 12:34:21;;;;;;;;;;;21.10;62.50;;;;;;5084744;28;19989;-68
2022/05/02 12:36:49;;;;;;;;;;;21.30;60.40;;;;;;5097710;27;19928;-68
2022/05/02 12:39:15;;;;;;;;;;;21.20;62.20;;;;;;5100870;28;19953;-68
2022/05/02 12:41:52;;;;;;;;;;;21.30;61.50;;;;;;5079176;28;20028;-68
2022/05/02 12:44:18;;;;;;;;;;;21.50;61.40;;;;;;5084304;28;19928;-69
2022/05/02 12:46:44;;;;;;;;;;;21.70;59.10;;;;;;5086438;28;19924;-69
2022/05/02 12:49:20;;;;;;;;;;;21.80;59.70;;;;;;5083173;28;20444;-67
2022/05/02 12:51:53;;;;;;;;;;;21.70;60.50;;;;;;5083475;28;20317;-68
2022/05/02 12:54:20;;;;;;;;;;;22.00;60.70;;;;;;5098794;28;19928;-69
2022/05/02 12:56:47;;;;;;;;;;;22.30;59.70;;;;;;5084325;28;19980;-69
2022/05/02 13:02:00;;;;;;;;;;;22.90;58.70;;;;;;5078626;28;20479;-69
2022/05/02 13:04:27;;;;;;;;;;;23.00;58.10;;;;;;5084940;28;19928;-69
2022/05/02 13:06:57;;;;;;;;;;;23.00;56.70;;;;;;5082289;28;20318;-67
2022/05/02 13:09:35;;;;;;;;;;;22.60;57.70;;;;;;5083988;28;19928;-68
2022/05/02 13:12:07;;;;;;;;;;;22.70;58.60;;;;;;5082879;28;19928;-70
2022/05/02 13:14:32;;;;;;;;;;;23.00;58.70;;;;;;5081598;28;20018;-69
2022/05/02 13:16:58;;;;;;;;;;;22.90;57.30;;;;;;5100216;28;20324;-67
2022/05/02 13:19:34;;;;;;;;;;;22.80;59.90;;;;;;5082808;28;20231;-72
2022/05/02 13:21:59;;;;;;;;;;;23.10;56.70;;;;;;5081747;28;19957;-68
2022/05/02 13:24:25;;;;;;;;;;;23.10;56.30;;;;;;5079622;28;19961;-67
2022/05/02 13:27:01;;;;;;;;;;;22.80;57.80;;;;;;5098632;28;20421;-68
2022/05/02 13:29:29;;;;;;;;;;;22.80;59.40;;;;;;5082007;28;19938;-68
2022/05/02 13:32:05;;;;;;;;;;;23.00;57.90;;;;;;5082936;28;19940;-68
2022/05/02 13:34:39;;;;;;;;;;;23.60;57.50;;;;;;5081104;28;19932;-69
2022/05/02 13:37:14;;;;;;;;;;;23.80;56.40;;;;;;5085704;28;19928;-67
2022/05/02 13:39:49;;;;;;;;;;;23.30;56.70;;;;;;5101561;28;19972;-67
2022/05/02 13:42:22;;;;;;;;;;;23.60;55.70;;;;;;5085068;28;19928;-68
2022/05/02 13:44:57;;;;;;;;;;;23.60;55.90;;;;;;5081326;28;19928;-67
2022/05/02 13:47:26;;;;;;;;;;;23.50;56.30;;;;;;5086491;28;19931;-68
2022/05/02 13:50:02;;;;;;;;;;;23.40;56.00;;;;;;5081752;28;19928;-69
2022/05/02 13:52:46;;;;;;;;;;;23.40;55.10;;;;;;5083682;28;19982;-68
2022/05/02 13:55:18;;;;;;;;;;;23.30;55.90;;;;;;5083584;28;20058;-69
2022/05/02 13:58:00;;;;;;;;;;;23.60;55.20;;;;;;5081947;28;19930;-68
2022/05/02 14:03:32;;;;;;;;;;;23.30;55.80;;;;;;5077489;28;19935;-68
2022/05/02 14:06:00;;;;;;;;;;;23.20;56.40;;;;;;5081130;28;19932;-68
2022/05/02 14:08:28;;;;;;;;;;;23.20;55.50;;;;;;5081044;28;20373;-69
2022/05/02 14:10:57;;;;;;;;;;;22.50;56.60;;;;;;5079903;28;20015;-69
2022/05/02 14:13:23;;;;;;;;;;;21.90;57.90;;;;;;5078241;28;20015;-67
2022/05/02 14:15:48;;;;;;;;;;;21.40;58.40;;;;;;5080454;28;20457;-70
2022/05/02 14:18:18;;;;;;;;;;;21.40;59.70;;;;;;5075403;28;19932;-69
2022/05/02 14:20:45;;;;;;;;;;;21.40;58.30;;;;;;5082471;28;19973;-68
2022/05/02 14:23:11;;;;;;;;;;;21.60;59.20;;;;;;5079219;28;20848;-69
2022/05/02 14:25:38;;;;;;;;;;;21.90;58.70;;;;;;5083321;28;20400;-67
2022/05/02 14:28:07;;;;;;;;;;;21.90;58.70;;;;;;5084249;28;20010;-66
2022/05/02 14:30:39;;;;;;;;;;;21.80;59.10;;;;;;5082627;28;19928;-67
2022/05/02 14:33:05;;;;;;;;;;;22.00;59.00;;;;;;5082128;28;19928;-67
2022/05/02 14:35:40;;;;;;;;;;;22.20;57.90;;;;;;5099248;28;19932;-66
2022/05/02 14:38:09;;;;;;;;;;;21.80;57.90;;;;;;5080706;28;20014;-67
2022/05/02 14:40:39;;;;;;;;;;;21.50;58.40;;;;;;5084122;28;20369;-67
2022/05/02 14:43:06;;;;;;;;;;;20.90;58.60;;;;;;5088517;28;19928;-67
2022/05/02 14:45:32;;;;;;;;;;;19.90;60.50;;;;;;5103940;28;19966;-66
2022/05/02 14:47:59;;;;;;;;;;;19.00;62.10;;;;;;5086060;28;19967;-68
2022/05/02 14:50:27;;;;;;;;;;;18.60;62.00;;;;;;5086379;28;20735;-69
2022/05/02 14:52:54;;;;;;;;;;;18.00;63.40;;;;;;5085045;28;19928;-67
2022/05/02 14:55:24;;;;;;;;;;;17.60;64.90;;;;;;5100270;28;19951;-68
2022/05/02 14:57:51;;;;;;;;;;;16.80;66.70;;;;;;5104832;28;19935;-68
2022/05/02 15:00:19;;;;;;;;;;;16.80;66.70;;;;;;5085359;28;19928;-67
2022/05/02 15:02:47;;;;;;;;;;;16.50;67.60;;;;;;5088531;28;19928;-68
2022/05/02 15:05:16;;;;;;;;;;;16.30;68.50;;;;;;5086064;28;19936;-68
2022/05/02 15:07:50;;;;;;;;;;;16.10;69.00;;;;;;5083733;28;19928;-68
2022/05/02 15:10:26;;;;;;;;;;;16.20;68.90;;;;;;5085756;28;19928;-68
2022/05/02 15:13:02;;;;;;;;;;;16.00;69.50;;;;;;5087514;28;19935;-68